Redlake, Minnesota
Current Conditions -  °F | °C
As of 9:53 AM on Friday 31 Oct 2014 (Local Time) from KBJI Reporting Station
Clear Clear  
Wind Chill: 25°   Ceiling: Unl
Heat Index: 25°   Visibility: 7mi
Dew Point: 19°   Wind: 3mph
Humidity: 78%   Direction: 340°NNW
Pressure: 30.59"   Gusts: NA
Location:  47.88°N, 95.02°W
Report Text: KBJI 311453Z AUTO 34003KT 7SM CLR M04/M07 A3059 RMK AO2 T10381071
Loading
Personal Weather Stations






























Interactive Weather Map
Tropical Storm Tracking
New forecast layout! Learn more

10-Day Weather Forecast

Advertisements
Track Severe Weather on mobile